Time;durP1;ratioP1;P1;durP2;ratioP2;P2;SDS_P1;SDS_P2;PMS_P1;PMS_P2;Temp;Humidity;BMP_temperature;BMP_pressure;BME280_temperature;BME280_humidity;BME280_pressure;Samples;Min_cycle;Max_cycle;Signal;HPM_P1;HPM_P2
2023/05/18 00:02:03;;;;;;;12.65;2.45;;;8.30;99.90;;;;;;4945393;28;20647;-62
2023/05/18 00:04:36;;;;;;;10.77;3.03;;;8.40;99.90;;;;;;4941505;28;20043;-61
2023/05/18 00:07:03;;;;;;;8.77;3.03;;;8.40;99.90;;;;;;4935416;28;20572;-62
2023/05/18 00:09:39;;;;;;;8.50;2.97;;;8.30;99.90;;;;;;4962210;28;20047;-61
2023/05/18 00:12:05;;;;;;;7.20;2.80;;;8.40;99.90;;;;;;4961813;28;20058;-62
2023/05/18 00:14:32;;;;;;;7.85;2.35;;;8.40;99.90;;;;;;4943210;28;20078;-61
2023/05/18 00:17:00;;;;;;;8.00;2.58;;;8.40;99.90;;;;;;4950948;28;20070;-62
2023/05/18 00:19:27;;;;;;;7.07;2.30;;;8.40;99.90;;;;;;4950957;28;20580;-60
2023/05/18 00:21:54;;;;;;;7.07;2.55;;;8.40;99.90;;;;;;4967537;28;20051;-61
2023/05/18 00:24:21;;;;;;;9.00;2.38;;;8.40;99.90;;;;;;4965901;28;20410;-62
2023/05/18 00:26:48;;;;;;;11.45;2.58;;;8.40;99.90;;;;;;4968729;28;20074;-62
2023/05/18 00:29:14;;;;;;;8.90;2.70;;;8.40;99.90;;;;;;4962043;28;20042;-62
2023/05/18 00:31:41;;;;;;;7.13;2.25;;;8.40;99.90;;;;;;4933802;28;20039;-62
2023/05/18 00:34:07;;;;;;;12.07;2.28;;;8.40;99.90;;;;;;4966591;28;20043;-62
2023/05/18 00:36:34;;;;;;;8.52;2.10;;;8.40;99.90;;;;;;4968360;28;20077;-61
2023/05/18 00:39:01;;;;;;;9.10;2.83;;;8.40;99.90;;;;;;4952135;28;20051;-62
2023/05/18 00:41:27;;;;;;;8.02;2.13;;;8.40;99.90;;;;;;4961758;28;21147;-61
2023/05/18 00:43:54;;;;;;;9.10;2.33;;;8.40;99.90;;;;;;4962388;28;20151;-62
2023/05/18 00:46:21;;;;;;;6.60;2.58;;;8.40;99.90;;;;;;4948939;28;20432;-62
2023/05/18 00:48:48;;;;;;;6.55;2.13;;;8.40;99.90;;;;;;4970906;28;20057;-62
2023/05/18 00:51:14;;;;;;;7.75;2.30;;;8.40;99.90;;;;;;4970201;28;20038;-62
2023/05/18 00:53:42;;;;;;;9.82;2.80;;;8.40;99.90;;;;;;4973989;28;20111;-61
2023/05/18 00:56:09;;;;;;;8.77;2.63;;;8.40;99.90;;;;;;4958311;28;20058;-61
2023/05/18 00:58:36;;;;;;;12.52;2.50;;;8.40;99.90;;;;;;4955982;28;20404;-62
2023/05/18 01:01:04;;;;;;;8.90;2.42;;;8.40;99.90;;;;;;4965745;28;20042;-62
2023/05/18 01:03:39;;;;;;;13.35;2.20;;;8.30;99.90;;;;;;4969382;28;20090;-62
2023/05/18 01:06:05;;;;;;;8.30;2.58;;;8.40;99.90;;;;;;4973872;28;20083;-62
2023/05/18 01:08:32;;;;;;;9.30;2.40;;;8.40;99.90;;;;;;4965874;28;20903;-62
2023/05/18 01:11:25;;;;;;;8.23;2.40;;;8.40;99.90;;;;;;4966553;28;20942;-62
2023/05/18 01:14:23;;;;;;;7.60;2.63;;;8.40;99.90;;;;;;4961574;28;20476;-62
2023/05/18 01:17:42;;;;;;;10.55;2.47;;;8.40;99.90;;;;;;4955267;28;20077;-62
2023/05/18 01:20:38;;;;;;;9.15;3.08;;;8.40;99.90;;;;;;4908681;28;20061;-62
2023/05/18 01:23:44;;;;;;;6.38;2.50;;;8.40;99.90;;;;;;4969459;28;20046;-61
2023/05/18 01:26:15;;;;;;;10.07;2.63;;;8.40;99.90;;;;;;4952505;28;20069;-62
2023/05/18 01:28:47;;;;;;;9.93;2.75;;;8.40;99.90;;;;;;4946077;28;20046;-61
2023/05/18 01:31:14;;;;;;;11.38;3.13;;;8.40;99.90;;;;;;4935428;28;20477;-61
2023/05/18 01:33:40;;;;;;;8.00;2.30;;;8.40;99.90;;;;;;4970586;28;20549;-62
2023/05/18 01:36:07;;;;;;;8.18;2.42;;;8.40;99.90;;;;;;4949696;28;20057;-62
2023/05/18 01:38:32;;;;;;;9.65;3.45;;;8.40;99.90;;;;;;4934613;28;24163;-62
2023/05/18 01:41:17;;;;;;;12.15;2.70;;;8.40;99.90;;;;;;4966691;28;20098;-62
2023/05/18 01:44:03;;;;;;;8.20;2.47;;;8.40;99.90;;;;;;4965618;28;20045;-62
2023/05/18 01:46:44;;;;;;;8.95;2.88;;;8.40;99.90;;;;;;4967336;28;20042;-62
2023/05/18 01:49:43;;;;;;;7.05;2.88;;;8.40;99.90;;;;;;4949821;28;20053;-62
2023/05/18 01:52:31;;;;;;;6.82;2.70;;;8.40;99.90;;;;;;4968301;28;20050;-62
2023/05/18 01:55:02;;;;;;;7.47;2.60;;;8.40;99.90;;;;;;4948771;28;20046;-62
2023/05/18 01:57:30;;;;;;;7.65;2.42;;;8.40;99.90;;;;;;4944285;28;20046;-62
2023/05/18 01:59:58;;;;;;;10.57;2.65;;;8.40;99.90;;;;;;4947565;28;20042;-62
2023/05/18 02:02:25;;;;;;;7.13;2.70;;;8.40;99.90;;;;;;4935286;28;20046;-62
2023/05/18 02:04:51;;;;;;;10.85;2.95;;;8.40;99.90;;;;;;4958356;28;20042;-61
2023/05/18 02:07:17;;;;;;;10.25;2.50;;;8.40;99.90;;;;;;4967353;28;20498;-62
2023/05/18 02:09:43;;;;;;;5.68;2.42;;;8.40;99.90;;;;;;4936934;28;20054;-62
2023/05/18 02:12:09;;;;;;;7.68;2.50;;;8.40;99.90;;;;;;4966826;28;20035;-62
2023/05/18 02:14:35;;;;;;;8.20;2.45;;;8.40;99.90;;;;;;4944960;28;20047;-62
2023/05/18 02:17:01;;;;;;;12.30;2.50;;;8.50;99.90;;;;;;4941819;28;20050;-62
2023/05/18 02:19:29;;;;;;;8.82;2.78;;;8.40;99.90;;;;;;4945010;28;20045;-61
2023/05/18 02:21:56;;;;;;;8.63;2.50;;;8.40;99.90;;;;;;4949375;28;20050;-61
2023/05/18 02:24:23;;;;;;;5.30;2.08;;;8.40;99.90;;;;;;4945789;28;20086;-62
2023/05/18 02:26:52;;;;;;;8.32;2.92;;;8.50;99.90;;;;;;4954032;28;20531;-61
2023/05/18 02:29:18;;;;;;;9.48;3.03;;;8.50;99.90;;;;;;4953959;28;20048;-62
2023/05/18 02:31:43;;;;;;;9.05;2.83;;;8.40;99.90;;;;;;4933146;28;20047;-62
2023/05/18 02:34:09;;;;;;;5.97;2.22;;;8.50;99.90;;;;;;4947865;28;21003;-62
2023/05/18 02:36:41;;;;;;;11.63;2.53;;;8.40;99.90;;;;;;4946333;28;20153;-62
2023/05/18 02:39:08;;;;;;;11.77;2.53;;;8.40;99.90;;;;;;4963167;28;20125;-61
2023/05/18 02:41:37;;;;;;;9.25;2.78;;;8.40;99.90;;;;;;4948642;28;20042;-62
2023/05/18 02:44:03;;;;;;;6.38;2.53;;;8.40;99.90;;;;;;4958683;28;20050;-62
2023/05/18 02:46:30;;;;;;;7.43;2.22;;;8.40;99.90;;;;;;4948919;28;20046;-61
2023/05/18 02:48:56;;;;;;;9.85;2.83;;;8.40;99.90;;;;;;4963650;28;20054;-61
2023/05/18 02:51:22;;;;;;;8.10;2.60;;;8.40;99.90;;;;;;4965227;28;20100;-62
2023/05/18 02:53:48;;;;;;;8.90;2.13;;;8.50;99.90;;;;;;4964529;28;20148;-62
2023/05/18 02:56:14;;;;;;;7.10;2.63;;;8.50;99.90;;;;;;4963665;28;20085;-62
2023/05/18 02:58:42;;;;;;;11.63;2.45;;;8.40;99.90;;;;;;4969020;28;20109;-62
2023/05/18 03:01:10;;;;;;;7.47;2.33;;;8.40;99.90;;;;;;4965477;28;20042;-61
2023/05/18 03:03:37;;;;;;;13.05;3.03;;;8.40;99.90;;;;;;4967674;28;20048;-62
2023/05/18 03:06:04;;;;;;;10.77;2.75;;;8.40;99.90;;;;;;4928126;28;20105;-62
2023/05/18 03:08:30;;;;;;;6.75;2.30;;;8.40;99.90;;;;;;4955339;28;20474;-62
2023/05/18 03:10:59;;;;;;;8.10;2.42;;;8.40;99.90;;;;;;4971996;28;20093;-62
2023/05/18 03:13:25;;;;;;;7.07;2.70;;;8.40;99.90;;;;;;4950867;28;20536;-62
2023/05/18 03:15:51;;;;;;;7.07;2.75;;;8.30;99.90;;;;;;4969076;28;20054;-62
2023/05/18 03:18:20;;;;;;;6.13;2.63;;;8.30;99.90;;;;;;4946856;28;20119;-61
2023/05/18 03:20:45;;;;;;;10.13;2.97;;;8.30;99.90;;;;;;4948873;28;20053;-62
2023/05/18 03:23:11;;;;;;;8.07;2.85;;;8.30;99.90;;;;;;4966464;28;20042;-62
2023/05/18 03:25:37;;;;;;;9.13;2.88;;;8.40;99.90;;;;;;4968140;28;20042;-62
2023/05/18 03:28:04;;;;;;;7.55;2.47;;;8.40;99.90;;;;;;4970671;28;20042;-62
2023/05/18 03:30:33;;;;;;;8.05;2.80;;;8.30;99.90;;;;;;4951267;28;20580;-60
2023/05/18 03:33:00;;;;;;;6.95;2.83;;;8.30;99.90;;;;;;4963737;28;20093;-61
2023/05/18 03:35:26;;;;;;;7.32;3.22;;;8.30;99.90;;;;;;4959479;28;20161;-62
2023/05/18 03:37:52;;;;;;;7.57;2.60;;;8.30;99.90;;;;;;4954643;28;20038;-62
2023/05/18 03:40:18;;;;;;;7.90;2.95;;;8.30;99.90;;;;;;4969376;28;20042;-62
2023/05/18 03:42:44;;;;;;;13.23;3.50;;;8.30;99.90;;;;;;4951777;28;20057;-62
2023/05/18 03:45:11;;;;;;;7.90;3.33;;;8.30;99.90;;;;;;4965230;28;20051;-62
2023/05/18 03:47:37;;;;;;;12.13;3.40;;;8.30;99.90;;;;;;4950376;28;20050;-62
2023/05/18 03:50:04;;;;;;;8.05;3.05;;;8.30;99.90;;;;;;4968359;28;20034;-62
2023/05/18 03:52:35;;;;;;;6.72;2.88;;;8.30;99.90;;;;;;4960886;28;20045;-62
2023/05/18 03:55:01;;;;;;;9.70;3.13;;;8.30;99.90;;;;;;4952151;28;20050;-62
2023/05/18 03:57:27;;;;;;;7.03;3.00;;;8.30;99.90;;;;;;4969176;28;20190;-62
2023/05/18 03:59:54;;;;;;;9.52;3.33;;;8.30;99.90;;;;;;4950975;28;20053;-62
2023/05/18 04:02:20;;;;;;;8.57;2.53;;;8.40;99.90;;;;;;4950759;28;20042;-62
2023/05/18 04:04:46;;;;;;;10.52;3.22;;;8.40;99.90;;;;;;4967614;28;20120;-61
2023/05/18 04:07:15;;;;;;;9.52;2.72;;;8.40;99.90;;;;;;4964503;28;20062;-61
2023/05/18 04:09:42;;;;;;;7.25;2.67;;;8.30;99.90;;;;;;4954173;28;20046;-60
2023/05/18 04:12:09;;;;;;;8.20;2.70;;;8.40;99.90;;;;;;4966264;28;20046;-62
2023/05/18 04:14:35;;;;;;;7.18;2.42;;;8.40;99.90;;;;;;4939996;28;20405;-62
2023/05/18 04:17:03;;;;;;;13.77;2.75;;;8.40;99.90;;;;;;4960185;28;20128;-62
2023/05/18 04:19:33;;;;;;;10.70;2.78;;;8.40;99.90;;;;;;4940806;28;20167;-62
2023/05/18 04:22:03;;;;;;;6.25;2.53;;;8.50;99.90;;;;;;4956816;28;20053;-62
2023/05/18 04:24:33;;;;;;;8.23;2.28;;;8.50;99.90;;;;;;4955642;28;20050;-61
2023/05/18 04:27:00;;;;;;;6.88;2.15;;;8.50;99.90;;;;;;4953911;28;20042;-61
2023/05/18 04:29:27;;;;;;;10.75;2.90;;;8.50;99.90;;;;;;4961074;28;20066;-61
2023/05/18 04:31:58;;;;;;;10.70;2.92;;;8.60;99.90;;;;;;4954134;28;21340;-62
2023/05/18 04:34:25;;;;;;;9.85;2.45;;;8.60;99.90;;;;;;4967187;28;20122;-62
2023/05/18 04:36:53;;;;;;;8.48;2.10;;;8.60;99.90;;;;;;4958386;28;20166;-61
2023/05/18 04:39:19;;;;;;;8.32;2.70;;;8.70;99.90;;;;;;4968608;28;20505;-62
2023/05/18 04:41:45;;;;;;;9.50;2.63;;;8.60;99.90;;;;;;4953272;28;20170;-61
2023/05/18 04:44:12;;;;;;;7.43;2.60;;;8.70;99.90;;;;;;4961633;28;20485;-61
2023/05/18 04:46:39;;;;;;;9.80;2.60;;;8.70;99.90;;;;;;4934621;28;20582;-62
2023/05/18 04:49:05;;;;;;;9.68;2.13;;;8.70;99.90;;;;;;4969348;28;20082;-61
2023/05/18 04:51:33;;;;;;;14.00;3.00;;;8.70;99.90;;;;;;4953884;28;20141;-62
2023/05/18 04:54:01;;;;;;;8.70;2.78;;;8.70;99.90;;;;;;4949361;28;21034;-62
2023/05/18 04:56:28;;;;;;;10.38;2.65;;;8.80;99.90;;;;;;4952616;28;20390;-62
2023/05/18 04:58:58;;;;;;;10.20;2.90;;;8.80;99.90;;;;;;4950505;28;20358;-61
2023/05/18 05:01:24;;;;;;;9.57;3.17;;;8.80;99.90;;;;;;4952196;28;20046;-62
2023/05/18 05:03:50;;;;;;;8.18;3.10;;;8.80;99.90;;;;;;4969025;28;20081;-62
2023/05/18 05:06:15;;;;;;;12.25;3.42;;;8.90;99.90;;;;;;4967592;28;20046;-60
2023/05/18 05:08:41;;;;;;;5.07;2.65;;;8.80;99.90;;;;;;4970860;28;20046;-62
2023/05/18 05:11:07;;;;;;;10.48;3.00;;;8.90;99.90;;;;;;4972605;28;20074;-62
2023/05/18 05:13:34;;;;;;;9.05;2.85;;;8.90;99.90;;;;;;4974030;28;20490;-62
2023/05/18 05:16:01;;;;;;;6.90;2.80;;;8.90;99.90;;;;;;4957234;28;20891;-61
2023/05/18 05:18:26;;;;;;;9.40;3.58;;;9.00;99.90;;;;;;4954231;28;20117;-62
2023/05/18 05:20:53;;;;;;;9.05;2.55;;;9.00;99.90;;;;;;4973577;28;20564;-62
2023/05/18 05:23:19;;;;;;;13.35;3.10;;;9.00;99.90;;;;;;4968448;28;20038;-61
2023/05/18 05:25:44;;;;;;;10.73;2.70;;;9.10;99.90;;;;;;4958100;28;20054;-62
2023/05/18 05:28:10;;;;;;;7.70;2.40;;;9.10;99.90;;;;;;4955724;28;20100;-62
2023/05/18 05:30:36;;;;;;;12.98;2.97;;;9.10;99.90;;;;;;4953162;28;20042;-62
2023/05/18 05:33:02;;;;;;;8.57;2.63;;;9.20;99.90;;;;;;4971491;28;20133;-62
2023/05/18 05:35:27;;;;;;;7.95;2.38;;;9.20;99.90;;;;;;4973266;28;20051;-62
2023/05/18 05:37:54;;;;;;;9.07;2.85;;;9.20;99.90;;;;;;4941819;28;20049;-62
2023/05/18 05:40:20;;;;;;;8.05;2.63;;;9.30;99.90;;;;;;4965181;28;20043;-62
2023/05/18 05:42:46;;;;;;;7.97;2.55;;;9.40;99.90;;;;;;4969381;28;25528;-62
2023/05/18 05:45:12;;;;;;;7.70;2.30;;;9.40;99.90;;;;;;4969593;28;20050;-62
2023/05/18 05:47:38;;;;;;;8.05;2.70;;;9.40;99.90;;;;;;4952239;28;20057;-62
2023/05/18 05:50:04;;;;;;;10.95;3.17;;;9.50;99.90;;;;;;4960296;28;20050;-62
2023/05/18 05:52:30;;;;;;;11.20;2.60;;;9.50;99.90;;;;;;4949215;28;20045;-61
2023/05/18 05:54:56;;;;;;;9.68;2.72;;;9.50;99.90;;;;;;4960672;28;20498;-62
2023/05/18 05:57:22;;;;;;;9.80;2.70;;;9.50;99.90;;;;;;4952690;28;20100;-62
2023/05/18 05:59:47;;;;;;;9.48;2.78;;;9.60;99.90;;;;;;4952420;28;20497;-62
2023/05/18 06:02:13;;;;;;;7.35;2.40;;;9.60;99.90;;;;;;4941142;28;20050;-62
2023/05/18 06:04:39;;;;;;;6.53;2.67;;;9.70;99.90;;;;;;4967164;28;20096;-62
2023/05/18 06:07:05;;;;;;;8.25;2.65;;;9.70;99.90;;;;;;4966649;28;20169;-61
2023/05/18 06:09:31;;;;;;;7.47;2.70;;;9.70;99.90;;;;;;4970225;28;20047;-62
2023/05/18 06:11:57;;;;;;;9.70;2.60;;;9.70;99.90;;;;;;4969226;28;20053;-61
2023/05/18 06:14:22;;;;;;;10.45;2.63;;;9.80;99.90;;;;;;4970340;28;20046;-62
2023/05/18 06:16:48;;;;;;;6.55;2.55;;;9.80;99.90;;;;;;4953716;28;20034;-62
2023/05/18 06:19:14;;;;;;;12.45;3.33;;;9.80;99.90;;;;;;4953108;28;20053;-62
2023/05/18 06:21:40;;;;;;;9.95;2.80;;;9.80;99.90;;;;;;4969976;28;20508;-62
2023/05/18 06:24:05;;;;;;;11.43;2.90;;;9.90;99.90;;;;;;4967867;28;20049;-62
2023/05/18 06:26:31;;;;;;;8.25;2.80;;;9.90;99.90;;;;;;4967725;28;20042;-62
2023/05/18 06:28:57;;;;;;;10.32;2.63;;;9.90;99.90;;;;;;4954323;28;20050;-62
2023/05/18 06:31:23;;;;;;;10.52;3.15;;;10.00;99.90;;;;;;4974137;28;20035;-62
2023/05/18 06:33:49;;;;;;;13.07;3.00;;;10.00;99.90;;;;;;4954243;28;20574;-62
2023/05/18 06:36:15;;;;;;;11.23;2.72;;;10.00;99.90;;;;;;4952642;28;20050;-62
2023/05/18 06:38:41;;;;;;;8.02;2.72;;;10.00;99.80;;;;;;4958642;28;20042;-61
2023/05/18 06:41:07;;;;;;;12.13;2.88;;;10.10;99.60;;;;;;4976684;28;20039;-62
2023/05/18 06:43:33;;;;;;;5.05;2.10;;;10.10;99.50;;;;;;4952462;28;20101;-61
2023/05/18 06:45:59;;;;;;;7.97;2.75;;;10.10;99.20;;;;;;4968268;28;20074;-62
2023/05/18 06:48:26;;;;;;;11.52;2.60;;;10.20;99.10;;;;;;4943939;28;20542;-61
2023/05/18 06:50:53;;;;;;;11.77;3.05;;;10.20;99.00;;;;;;4970220;28;20618;-62
2023/05/18 06:53:18;;;;;;;5.72;2.30;;;10.20;98.90;;;;;;4940223;28;20057;-62
2023/05/18 06:55:44;;;;;;;5.97;2.13;;;10.30;99.00;;;;;;4972531;28;20039;-62
2023/05/18 06:58:10;;;;;;;11.52;2.17;;;10.40;99.00;;;;;;4955267;28;20038;-61
2023/05/18 07:00:37;;;;;;;9.68;2.55;;;10.40;98.90;;;;;;4973796;28;20042;-62
2023/05/18 07:03:03;;;;;;;9.60;2.63;;;10.50;98.60;;;;;;4955419;28;20207;-62
2023/05/18 07:05:29;;;;;;;7.72;2.78;;;10.50;98.70;;;;;;4956319;28;20050;-62
2023/05/18 07:07:54;;;;;;;9.57;2.50;;;10.60;98.80;;;;;;4940169;28;20058;-62
2023/05/18 07:10:21;;;;;;;8.55;2.55;;;10.70;98.60;;;;;;4957843;28;20109;-62
2023/05/18 07:12:48;;;;;;;9.95;2.67;;;10.80;98.60;;;;;;4971399;28;20075;-62
2023/05/18 07:15:14;;;;;;;10.32;2.50;;;10.90;98.30;;;;;;4957017;28;20084;-62
2023/05/18 07:17:40;;;;;;;7.57;2.30;;;11.00;97.90;;;;;;4972137;28;20035;-62
2023/05/18 07:20:06;;;;;;;8.65;2.50;;;11.10;97.70;;;;;;4955536;28;20618;-63
2023/05/18 07:22:33;;;;;;;7.90;2.10;;;11.20;97.70;;;;;;4944205;28;20102;-62
2023/05/18 07:24:59;;;;;;;4.03;2.08;;;11.20;97.30;;;;;;4936381;28;20604;-62
2023/05/18 07:27:28;;;;;;;8.77;2.13;;;11.30;97.20;;;;;;4970457;28;20859;-62
2023/05/18 07:29:54;;;;;;;7.07;2.17;;;11.40;96.90;;;;;;4953503;28;20053;-62
2023/05/18 07:32:20;;;;;;;5.68;2.08;;;11.60;96.80;;;;;;4942404;28;20520;-62
2023/05/18 07:34:46;;;;;;;8.10;1.80;;;11.60;96.60;;;;;;4963184;28;20066;-63
2023/05/18 07:37:12;;;;;;;9.90;2.38;;;11.70;96.00;;;;;;4957602;28;20057;-61
2023/05/18 07:39:38;;;;;;;8.90;2.10;;;11.80;96.00;;;;;;4950165;28;20069;-62
2023/05/18 07:42:05;;;;;;;4.95;2.25;;;11.80;95.70;;;;;;4969207;28;20129;-62
2023/05/18 07:44:31;;;;;;;7.22;2.28;;;11.90;95.80;;;;;;4967247;28;20053;-63
2023/05/18 07:46:56;;;;;;;7.63;2.10;;;12.00;95.90;;;;;;4970187;28;20549;-62
2023/05/18 07:49:22;;;;;;;7.13;2.30;;;12.10;95.70;;;;;;4947398;28;20134;-62
2023/05/18 07:51:51;;;;;;;6.75;1.77;;;12.20;95.40;;;;;;4967542;28;20051;-62
2023/05/18 07:54:18;;;;;;;11.05;2.35;;;12.30;95.30;;;;;;4949830;28;20038;-62
2023/05/18 07:56:44;;;;;;;10.52;2.50;;;12.40;94.90;;;;;;4942941;28;20492;-62
2023/05/18 07:59:10;;;;;;;8.43;2.20;;;12.50;94.80;;;;;;4972916;28;20085;-62
2023/05/18 08:01:37;;;;;;;9.25;2.25;;;12.60;94.60;;;;;;4951323;28;20038;-62
2023/05/18 08:04:03;;;;;;;7.70;2.50;;;12.70;94.00;;;;;;4964815;28;20074;-62
2023/05/18 08:06:29;;;;;;;8.43;2.53;;;12.70;93.70;;;;;;4949670;28;20134;-63
2023/05/18 08:08:55;;;;;;;9.52;2.10;;;12.70;93.90;;;;;;4949326;28;20050;-62
2023/05/18 08:11:22;;;;;;;10.70;2.95;;;12.70;93.50;;;;;;4968692;28;20066;-62
2023/05/18 08:13:48;;;;;;;9.15;2.50;;;12.70;93.70;;;;;;4945832;28;20126;-61
2023/05/18 08:16:14;;;;;;;3.92;2.10;;;12.80;93.70;;;;;;4963235;28;20050;-61
2023/05/18 08:18:39;;;;;;;9.80;2.33;;;12.80;93.30;;;;;;4962746;28;20052;-61
2023/05/18 08:21:08;;;;;;;8.52;2.55;;;12.90;92.90;;;;;;4964220;28;20089;-62
2023/05/18 08:23:37;;;;;;;8.23;2.17;;;13.00;93.00;;;;;;4964074;28;20062;-63
2023/05/18 08:26:03;;;;;;;8.93;2.42;;;13.00;92.60;;;;;;4973092;28;20043;-62
2023/05/18 08:28:30;;;;;;;13.80;2.80;;;13.10;92.50;;;;;;4949872;28;20050;-62
2023/05/18 08:30:56;;;;;;;7.72;2.53;;;13.20;91.90;;;;;;4962061;28;20062;-62
2023/05/18 08:33:22;;;;;;;5.85;2.25;;;13.30;92.40;;;;;;4974825;28;20054;-62
2023/05/18 08:35:48;;;;;;;10.30;3.08;;;13.40;92.60;;;;;;4964054;28;20046;-62
2023/05/18 08:38:15;;;;;;;8.10;2.42;;;13.50;92.70;;;;;;4953217;28;20067;-62
2023/05/18 08:41:02;;;;;;;11.65;2.58;;;13.80;92.50;;;;;;4967233;28;20043;-62
2023/05/18 08:43:32;;;;;;;7.00;2.55;;;13.90;92.60;;;;;;4964088;28;20060;-62
2023/05/18 08:46:12;;;;;;;6.72;2.50;;;14.00;92.10;;;;;;4948074;28;20039;-62
2023/05/18 08:48:40;;;;;;;6.80;2.67;;;14.00;91.40;;;;;;4959997;28;20058;-62
2023/05/18 08:51:09;;;;;;;7.63;2.38;;;14.00;91.20;;;;;;4942386;28;20153;-62
2023/05/18 08:53:37;;;;;;;6.72;2.30;;;13.90;90.60;;;;;;4947253;28;20061;-62
2023/05/18 08:56:03;;;;;;;9.25;2.28;;;13.90;90.20;;;;;;4966182;28;20053;-62
2023/05/18 08:58:35;;;;;;;7.57;2.30;;;14.00;90.50;;;;;;4962808;28;20046;-62
2023/05/18 09:01:02;;;;;;;6.47;2.10;;;14.10;90.30;;;;;;4955837;28;20047;-62
2023/05/18 09:03:29;;;;;;;11.23;2.72;;;14.20;90.20;;;;;;4953626;28;20074;-62
2023/05/18 09:05:58;;;;;;;6.82;2.22;;;14.30;89.60;;;;;;4947799;28;20050;-62
2023/05/18 09:08:24;;;;;;;5.80;2.00;;;14.20;87.00;;;;;;4969941;28;20062;-61
2023/05/18 09:10:50;;;;;;;16.88;4.00;;;14.20;87.70;;;;;;4948737;28;20089;-62
2023/05/18 09:13:21;;;;;;;7.03;2.05;;;14.00;86.60;;;;;;4942896;28;20050;-62
2023/05/18 09:15:46;;;;;;;11.00;2.63;;;14.00;86.20;;;;;;4940388;28;20054;-62
2023/05/18 09:18:12;;;;;;;10.55;3.08;;;13.90;86.50;;;;;;4947531;28;20046;-63
2023/05/18 09:20:38;;;;;;;11.50;2.60;;;13.80;86.80;;;;;;4929803;28;20748;-62
2023/05/18 09:23:04;;;;;;;12.60;2.25;;;13.80;87.30;;;;;;4967785;28;20039;-61
2023/05/18 09:25:33;;;;;;;7.15;2.20;;;13.80;88.20;;;;;;4952144;28;20054;-62
2023/05/18 09:28:00;;;;;;;10.10;2.85;;;14.00;88.20;;;;;;4945201;28;20046;-62
2023/05/18 09:30:26;;;;;;;7.05;2.63;;;14.00;88.00;;;;;;4969866;28;20393;-62
2023/05/18 09:32:52;;;;;;;11.20;2.90;;;14.10;88.10;;;;;;4971370;28;20050;-62
2023/05/18 09:35:18;;;;;;;6.63;2.50;;;14.30;88.00;;;;;;4952767;28;20050;-62
2023/05/18 09:37:43;;;;;;;6.57;2.25;;;14.40;87.80;;;;;;4972093;28;20073;-62
2023/05/18 09:40:09;;;;;;;7.25;2.58;;;14.50;85.90;;;;;;4970077;28;20142;-61
2023/05/18 09:42:36;;;;;;;12.93;2.53;;;14.40;85.30;;;;;;4965352;28;20093;-62
2023/05/18 09:45:22;;;;;;;9.30;2.50;;;14.40;85.70;;;;;;4937787;28;20054;-61
2023/05/18 09:47:52;;;;;;;9.23;2.70;;;14.40;86.20;;;;;;4970287;28;21881;-62
2023/05/18 09:50:25;;;;;;;9.50;2.90;;;14.30;84.60;;;;;;4971903;28;20046;-62
2023/05/18 09:52:51;;;;;;;10.77;2.63;;;14.10;84.60;;;;;;4947820;28;20061;-62
2023/05/18 09:55:19;;;;;;;8.43;2.40;;;14.10;85.10;;;;;;4970054;28;20043;-62
2023/05/18 09:57:47;;;;;;;13.20;2.78;;;14.20;85.90;;;;;;4939451;28;20493;-62
2023/05/18 10:00:14;;;;;;;7.18;2.95;;;14.20;86.40;;;;;;4949926;28;20085;-62
2023/05/18 10:02:47;;;;;;;7.00;2.60;;;14.20;85.40;;;;;;4961070;28;20043;-62
2023/05/18 10:05:19;;;;;;;9.50;2.70;;;14.20;85.40;;;;;;4969745;28;20122;-62
2023/05/18 10:07:45;;;;;;;9.68;2.58;;;14.20;86.60;;;;;;4969518;28;20069;-62
2023/05/18 10:10:12;;;;;;;10.68;2.83;;;14.30;87.00;;;;;;4947350;28;20062;-62
2023/05/18 10:12:39;;;;;;;12.32;2.80;;;14.40;87.10;;;;;;4929042;28;20555;-63
2023/05/18 10:15:09;;;;;;;8.75;2.97;;;14.50;87.50;;;;;;4950719;28;20630;-62
2023/05/18 10:17:37;;;;;;;9.85;2.47;;;14.70;87.80;;;;;;4970526;28;20050;-62
2023/05/18 10:20:08;;;;;;;7.75;2.58;;;14.80;86.90;;;;;;4957241;28;20508;-62
2023/05/18 10:22:35;;;;;;;9.95;2.80;;;14.80;85.30;;;;;;4952926;28;22094;-62
2023/05/18 10:25:04;;;;;;;10.02;2.50;;;14.70;84.70;;;;;;4968006;28;20039;-62
2023/05/18 10:27:33;;;;;;;7.97;2.88;;;14.80;85.00;;;;;;4972148;28;20646;-62
2023/05/18 10:30:02;;;;;;;12.57;3.40;;;14.80;85.40;;;;;;4964330;28;20163;-62
2023/05/18 10:32:31;;;;;;;7.72;2.72;;;14.80;85.20;;;;;;4949591;28;20117;-62
2023/05/18 10:34:58;;;;;;;7.45;2.47;;;14.90;86.80;;;;;;4967971;28;20051;-62
2023/05/18 10:37:29;;;;;;;8.82;2.58;;;15.00;86.00;;;;;;4966267;28;20991;-62
2023/05/18 10:39:57;;;;;;;7.07;2.70;;;15.10;86.10;;;;;;4963571;28;20049;-62
2023/05/18 10:42:24;;;;;;;10.43;2.63;;;15.10;84.30;;;;;;4941247;28;20077;-62
2023/05/18 10:44:52;;;;;;;8.52;2.90;;;15.30;83.80;;;;;;4964142;28;20038;-62
2023/05/18 10:47:19;;;;;;;7.75;2.83;;;15.30;83.10;;;;;;4946413;28;20485;-61
2023/05/18 10:49:48;;;;;;;8.10;3.00;;;15.30;83.60;;;;;;4944593;28;20050;-61
2023/05/18 10:52:16;;;;;;;7.00;2.63;;;15.30;83.90;;;;;;4941500;28;20104;-63
2023/05/18 10:54:42;;;;;;;7.65;2.95;;;15.30;83.70;;;;;;4943581;28;20084;-62
2023/05/18 10:57:15;;;;;;;7.88;2.40;;;15.30;84.20;;;;;;4966158;28;20085;-62
2023/05/18 10:59:43;;;;;;;8.07;2.58;;;15.30;85.30;;;;;;4953227;28;20547;-62
2023/05/18 11:02:16;;;;;;;12.55;2.83;;;15.50;86.00;;;;;;4965679;28;20046;-62
2023/05/18 11:04:42;;;;;;;10.73;2.72;;;15.70;85.50;;;;;;4963537;28;20105;-62
2023/05/18 11:07:12;;;;;;;7.90;2.55;;;15.90;84.20;;;;;;4926253;28;20059;-62
2023/05/18 11:09:42;;;;;;;7.93;2.75;;;15.90;81.30;;;;;;4944738;28;20991;-62
2023/05/18 11:12:19;;;;;;;10.45;2.33;;;15.80;81.70;;;;;;4937795;28;20047;-62
2023/05/18 11:14:49;;;;;;;7.70;2.70;;;15.80;80.80;;;;;;4943064;28;20050;-62
2023/05/18 11:17:24;;;;;;;5.80;2.15;;;15.70;80.70;;;;;;4932343;28;20051;-62
2023/05/18 11:20:08;;;;;;;6.97;2.42;;;15.70;80.90;;;;;;4951828;28;20175;-62
2023/05/18 11:22:51;;;;;;;14.73;2.58;;;15.60;80.60;;;;;;4935131;28;20034;-62
2023/05/18 11:25:23;;;;;;;4.80;2.33;;;15.50;80.90;;;;;;4942183;28;20050;-62
2023/05/18 11:27:54;;;;;;;6.43;2.30;;;15.50;80.40;;;;;;4945384;28;20050;-63
2023/05/18 11:30:49;;;;;;;12.65;2.70;;;15.60;80.60;;;;;;4948530;28;20525;-62
2023/05/18 11:33:20;;;;;;;8.02;2.53;;;15.80;80.50;;;;;;4948853;28;20046;-62
2023/05/18 11:36:07;;;;;;;8.68;2.53;;;15.70;79.90;;;;;;4943623;28;20047;-62
2023/05/18 11:38:53;;;;;;;6.22;2.40;;;15.80;80.00;;;;;;4934290;28;20604;-62
2023/05/18 11:41:57;;;;;;;8.73;2.40;;;15.70;80.50;;;;;;4945096;28;20053;-62
2023/05/18 11:44:26;;;;;;;9.00;2.83;;;15.60;80.10;;;;;;4947433;28;20042;-62
2023/05/18 11:46:57;;;;;;;6.60;2.30;;;15.70;80.40;;;;;;4946354;28;21835;-62
2023/05/18 11:49:41;;;;;;;12.60;2.72;;;15.80;80.30;;;;;;4943393;28;20137;-62
2023/05/18 11:52:20;;;;;;;6.68;2.53;;;15.90;80.50;;;;;;4924807;28;20069;-62
2023/05/18 11:54:55;;;;;;;10.07;2.67;;;16.00;81.10;;;;;;4942441;28;20073;-62
2023/05/18 11:57:25;;;;;;;8.77;2.58;;;16.00;79.70;;;;;;4942656;28;20933;-62
2023/05/18 11:59:58;;;;;;;10.50;3.17;;;15.90;79.50;;;;;;4949563;28;20053;-61
2023/05/18 12:02:26;;;;;;;7.57;2.63;;;15.90;79.60;;;;;;4943321;28;20050;-63
2023/05/18 12:05:05;;;;;;;10.73;2.65;;;15.90;79.20;;;;;;4947029;28;20549;-63
2023/05/18 12:07:33;;;;;;;11.50;2.58;;;15.80;79.60;;;;;;4954635;28;20058;-62
2023/05/18 12:10:00;;;;;;;6.85;2.55;;;15.90;79.30;;;;;;4957866;28;20053;-62
2023/05/18 12:12:27;;;;;;;9.43;2.80;;;15.90;79.00;;;;;;4946686;28;20046;-62
2023/05/18 12:14:57;;;;;;;8.18;2.50;;;15.90;79.40;;;;;;4940693;28;20071;-62
2023/05/18 12:17:41;;;;;;;6.95;2.47;;;16.00;81.50;;;;;;4960436;28;20097;-62
2023/05/18 12:20:09;;;;;;;9.05;2.88;;;16.30;81.50;;;;;;4959004;28;20073;-62
2023/05/18 12:22:36;;;;;;;6.47;2.53;;;16.50;81.50;;;;;;4960836;28;20043;-62
2023/05/18 12:25:01;;;;;;;7.63;2.53;;;16.70;80.40;;;;;;4955053;28;21081;-62
2023/05/18 12:27:28;;;;;;;10.07;2.50;;;17.00;79.50;;;;;;4951976;28;20042;-62
2023/05/18 12:29:54;;;;;;;9.60;2.70;;;16.90;78.20;;;;;;4967995;28;20049;-62
2023/05/18 12:32:19;;;;;;;10.52;2.30;;;16.90;77.70;;;;;;4963114;28;20050;-63
2023/05/18 12:34:45;;;;;;;11.50;2.88;;;17.10;79.00;;;;;;4947828;28;23413;-62
2023/05/18 12:37:11;;;;;;;7.13;2.40;;;17.40;78.60;;;;;;4955684;28;20085;-62
2023/05/18 12:39:37;;;;;;;9.63;2.53;;;17.70;78.70;;;;;;4949001;28;20406;-62
2023/05/18 12:42:15;;;;;;;9.23;2.28;;;17.80;76.40;;;;;;4954690;28;20046;-63
2023/05/18 12:44:45;;;;;;;6.60;2.28;;;17.60;74.70;;;;;;4954982;28;20448;-62
2023/05/18 12:47:14;;;;;;;7.20;2.30;;;17.50;74.70;;;;;;4968442;28;25801;-63
2023/05/18 12:49:48;;;;;;;8.45;2.70;;;17.70;77.40;;;;;;4958222;28;20185;-63
2023/05/18 12:52:15;;;;;;;6.18;2.25;;;17.90;76.80;;;;;;4970170;28;20128;-61
2023/05/18 12:55:00;;;;;;;9.13;2.65;;;17.90;74.70;;;;;;4975057;28;20057;-62
2023/05/18 12:57:26;;;;;;;8.68;2.25;;;17.70;74.70;;;;;;4965108;28;20038;-63